Time;durP1;ratioP1;P1;durP2;ratioP2;P2;SDS_P1;SDS_P2;PMS_P1;PMS_P2;Temp;Humidity;BMP_temperature;BMP_pressure;BME280_temperature;BME280_humidity;BME280_pressure;Samples;Min_cycle;Max_cycle;Signal;HPM_P1;HPM_P2
2022/11/12 00:00:37;;;;;;;;;;;;;;;;;;6198572;23;20015;-90
2022/11/12 00:03:03;;;;;;;;;;;;;;;;;;6199617;23;19923;-90
2022/11/12 00:05:29;;;;;;;;;;;;;;;;;;6198275;23;19919;-90
2022/11/12 00:07:55;;;;;;;;;;;;;;;;;;6172102;23;19920;-90
2022/11/12 00:10:21;;;;;;;;;;;;;;;;;;6171031;23;19925;-90
2022/11/12 00:12:47;;;;;;;;;;;;;;;;;;6199323;23;20320;-90
2022/11/12 00:15:12;;;;;;;;;;;;;;;;;;6198025;23;20045;-90
2022/11/12 00:17:38;;;;;;;;;;;;;;;;;;6197534;23;19919;-90
2022/11/12 00:20:04;;;;;;;;;;;;;;;;;;6196681;23;20361;-90
2022/11/12 00:22:30;;;;;;;;;;;;;;;;;;6170207;23;20018;-90
2022/11/12 00:24:56;;;;;;;;;;;;;;;;;;6173036;23;19923;-90
2022/11/12 00:27:22;;;;;;;;;;;;;;;;;;6170739;23;19923;-89
2022/11/12 00:29:48;;;;;;;;;;;;;;;;;;6197077;23;19943;-90
2022/11/12 00:32:14;;;;;;;;;;;;;;;;;;6200990;23;19919;-90
2022/11/12 00:34:40;;;;;;;;;;;;;;;;;;6198939;23;19920;-90
2022/11/12 00:37:06;;;;;;;;;;;;;;;;;;6176347;23;19990;-90
2022/11/12 00:39:32;;;;;;;;;;;;;;;;;;6172089;23;20025;-90
2022/11/12 00:41:58;;;;;;;;;;;;;;;;;;6175598;23;19977;-90
2022/11/12 00:44:24;;;;;;;;;;;;;;;;;;6169602;23;20363;-91
2022/11/12 00:46:50;;;;;;;;;;;;;;;;;;6170758;23;19915;-90
2022/11/12 00:49:16;;;;;;;;;;;;;;;;;;6171548;23;19923;-90
2022/11/12 00:51:42;;;;;;;;;;;;;;;;;;6176571;22;19919;-90
2022/11/12 00:54:08;;;;;;;;;;;;;;;;;;6229466;22;20408;-90
2022/11/12 00:56:34;;;;;;;;;;;;;;;;;;6223651;22;20552;-90
2022/11/12 00:58:59;;;;;;;;;;;;;;;;;;6224427;22;19926;-90
2022/11/12 01:01:25;;;;;;;;;;;;;;;;;;6222136;22;19918;-91
2022/11/12 01:03:51;;;;;;;;;;;;;;;;;;6230058;22;20202;-90
2022/11/12 01:06:17;;;;;;;;;;;;;;;;;;6223953;22;20010;-91
2022/11/12 01:08:43;;;;;;;;;;;;;;;;;;6230514;22;20295;-90
2022/11/12 01:11:09;;;;;;;;;;;;;;;;;;6231091;22;19990;-89
2022/11/12 01:13:35;;;;;;;;;;;;;;;;;;6227023;22;19994;-90
2022/11/12 01:16:01;;;;;;;;;;;;;;;;;;6228608;22;19915;-90
2022/11/12 01:18:27;;;;;;;;;;;;;;;;;;6226539;22;19920;-89
2022/11/12 01:20:54;;;;;;;;;;;;;;;;;;6229697;22;19973;-90
2022/11/12 01:23:20;;;;;;;;;;;;;;;;;;6225249;22;20021;-90
2022/11/12 01:25:46;;;;;;;;;;;;;;;;;;6230164;22;19919;-90
2022/11/12 01:28:12;;;;;;;;;;;;;;;;;;6231754;22;19955;-90
2022/11/12 01:30:38;;;;;;;;;;;;;;;;;;6228199;22;19920;-89
2022/11/12 01:33:03;;;;;;;;;;;;;;;;;;6231407;22;20579;-90
2022/11/12 01:35:29;;;;;;;;;;;;;;;;;;6228686;22;20236;-90
2022/11/12 01:37:55;;;;;;;;;;;;;;;;;;6230872;22;20098;-89
2022/11/12 01:40:21;;;;;;;;;;;;;;;;;;6228249;22;20308;-90
2022/11/12 01:42:47;;;;;;;;;;;;;;;;;;6231995;22;19998;-90
2022/11/12 01:45:17;;;;;;;;;;;;;;;;;;6231630;22;20255;-89
2022/11/12 01:47:43;;;;;;;;;;;;;;;;;;6232591;22;19919;-90
2022/11/12 01:50:08;;;;;;;;;;;;;;;;;;6231818;22;20049;-90
2022/11/12 01:52:34;;;;;;;;;;;;;;;;;;6227887;22;19981;-90
2022/11/12 01:55:00;;;;;;;;;;;;;;;;;;6259618;22;19957;-90
2022/11/12 01:57:26;;;;;;;;;;;;;;;;;;6231656;22;19924;-89
2022/11/12 01:59:52;;;;;;;;;;;;;;;;;;6234584;22;19930;-89
2022/11/12 02:02:18;;;;;;;;;;;;;;;;;;6231011;22;19922;-90
2022/11/12 02:04:45;;;;;;;;;;;;;;;;;;6235387;22;20351;-90
2022/11/12 02:07:11;;;;;;;;;;;;;;;;;;6232937;22;20308;-89
2022/11/12 02:09:37;;;;;;;;;;;;;;;;;;6230148;22;19919;-90
2022/11/12 02:12:03;;;;;;;;;;;;;;;;;;6232493;22;19920;-89
2022/11/12 02:14:29;;;;;;;;;;;;;;;;;;6227449;22;19919;-90
2022/11/12 02:16:55;;;;;;;;;;;;;;;;;;6232120;22;20217;-90
2022/11/12 02:19:21;;;;;;;;;;;;;;;;;;6233273;22;19923;-90
2022/11/12 02:21:47;;;;;;;;;;;;;;;;;;6233695;22;19919;-90
2022/11/12 02:24:13;;;;;;;;;;;;;;;;;;6233470;22;19926;-90
2022/11/12 02:26:39;;;;;;;;;;;;;;;;;;6232322;22;19919;-90
2022/11/12 02:29:04;;;;;;;;;;;;;;;;;;6237835;22;19919;-90
2022/11/12 02:31:30;;;;;;;;;;;;;;;;;;6229217;22;20340;-90
2022/11/12 02:33:56;;;;;;;;;;;;;;;;;;6233125;22;20002;-90
2022/11/12 02:36:22;;;;;;;;;;;;;;;;;;6228746;22;20233;-89
2022/11/12 02:38:48;;;;;;;;;;;;;;;;;;6233322;22;19926;-89
2022/11/12 02:41:14;;;;;;;;;;;;;;;;;;6231754;22;19951;-90
2022/11/12 02:43:40;;;;;;;;;;;;;;;;;;6234663;22;19919;-88
2022/11/12 02:46:06;;;;;;;;;;;;;;;;;;6232711;22;19929;-90
2022/11/12 02:48:32;;;;;;;;;;;;;;;;;;6230307;22;19989;-90
2022/11/12 02:50:58;;;;;;;;;;;;;;;;;;6234750;22;20324;-90
2022/11/12 02:53:24;;;;;;;;;;;;;;;;;;6230496;22;19924;-89
2022/11/12 02:55:50;;;;;;;;;;;;;;;;;;6233971;22;20320;-89
2022/11/12 02:58:16;;;;;;;;;;;;;;;;;;6228633;22;19930;-90
2022/11/12 03:00:42;;;;;;;;;;;;;;;;;;6207048;22;19923;-89
2022/11/12 03:03:08;;;;;;;;;;;;;;;;;;6207091;22;20403;-90
2022/11/12 03:05:34;;;;;;;;;;;;;;;;;;6229510;22;20782;-90
2022/11/12 03:08:00;;;;;;;;;;;;;;;;;;6232160;22;20464;-90
2022/11/12 03:10:26;;;;;;;;;;;;;;;;;;6230899;22;20006;-90
2022/11/12 03:12:52;;;;;;;;;;;;;;;;;;6233927;22;19925;-89
2022/11/12 03:15:18;;;;;;;;;;;;;;;;;;6233349;22;19919;-90
2022/11/12 03:17:44;;;;;;;;;;;;;;;;;;6208535;22;19919;-89
2022/11/12 03:20:10;;;;;;;;;;;;;;;;;;6235119;22;19946;-89
2022/11/12 03:22:36;;;;;;;;;;;;;;;;;;6205136;22;19927;-90
2022/11/12 03:25:02;;;;;;;;;;;;;;;;;;6233502;22;20431;-90
2022/11/12 03:27:27;;;;;;;;;;;;;;;;;;6230776;22;19930;-89
2022/11/12 03:29:53;;;;;;;;;;;;;;;;;;6209248;22;19994;-90
2022/11/12 03:32:19;;;;;;;;;;;;;;;;;;6204799;22;19919;-89
2022/11/12 03:34:45;;;;;;;;;;;;;;;;;;6235318;22;19915;-90
2022/11/12 03:37:11;;;;;;;;;;;;;;;;;;6233238;22;20333;-89
2022/11/12 03:39:37;;;;;;;;;;;;;;;;;;6206906;22;19931;-90
2022/11/12 03:42:03;;;;;;;;;;;;;;;;;;6231667;22;19919;-90
2022/11/12 03:44:29;;;;;;;;;;;;;;;;;;6207341;22;19915;-89
2022/11/12 03:46:55;;;;;;;;;;;;;;;;;;6210553;22;19926;-89
2022/11/12 03:49:21;;;;;;;;;;;;;;;;;;6206290;22;19926;-90
2022/11/12 03:51:47;;;;;;;;;;;;;;;;;;6234790;22;19947;-90
2022/11/12 03:54:13;;;;;;;;;;;;;;;;;;6203481;23;20013;-89
2022/11/12 03:56:41;;;;;;;;;;;;;;;;;;6180306;23;19962;-89
2022/11/12 03:59:08;;;;;;;;;;;;;;;;;;6203996;23;19963;-89
2022/11/12 04:01:34;;;;;;;;;;;;;;;;;;6177923;23;20408;-89
2022/11/12 04:03:59;;;;;;;;;;;;;;;;;;6201046;23;20367;-90
2022/11/12 04:09:10;;;;;;;;;;;;;;;;;;6202899;23;19927;-90
2022/11/12 04:11:36;;;;;;;;;;;;;;;;;;6200281;23;20281;-90
2022/11/12 04:14:02;;;;;;;;;;;;;;;;;;6177529;23;20787;-89
2022/11/12 04:21:57;;;;;;;;;;;;;;;;;;6204231;23;19964;-89
2022/11/12 04:27:08;;;;;;;;;;;;;;;;;;6205334;23;20016;-89
2022/11/12 04:32:19;;;;;;;;;;;;;;;;;;6200067;23;19919;-90
2022/11/12 04:34:45;;;;;;;;;;;;;;;;;;6178246;23;19915;-89
2022/11/12 04:37:11;;;;;;;;;;;;;;;;;;6204026;23;19927;-89
2022/11/12 04:39:37;;;;;;;;;;;;;;;;;;6200238;23;19924;-90
2022/11/12 04:45:02;;;;;;;;;;;;;;;;;;6203971;23;20260;-89
2022/11/12 04:47:28;;;;;;;;;;;;;;;;;;6201617;23;19921;-89
2022/11/12 04:49:54;;;;;;;;;;;;;;;;;;6206088;23;20328;-90
2022/11/12 04:52:20;;;;;;;;;;;;;;;;;;6206234;22;19923;-89
2022/11/12 04:54:46;;;;;;;;;;;;;;;;;;6209117;22;20477;-89
2022/11/12 04:57:12;;;;;;;;;;;;;;;;;;6211423;22;19921;-89
2022/11/12 04:59:38;;;;;;;;;;;;;;;;;;6209343;22;20539;-89
2022/11/12 05:02:04;;;;;;;;;;;;;;;;;;6210495;22;20437;-89
2022/11/12 05:04:30;;;;;;;;;;;;;;;;;;6232745;22;19919;-88
2022/11/12 05:06:56;;;;;;;;;;;;;;;;;;6238626;22;19990;-89
2022/11/12 05:09:22;;;;;;;;;;;;;;;;;;6235550;22;19922;-89
2022/11/12 05:11:48;;;;;;;;;;;;;;;;;;6210445;22;19972;-89
2022/11/12 05:14:14;;;;;;;;;;;;;;;;;;6207248;22;19926;-89
2022/11/12 05:16:40;;;;;;;;;;;;;;;;;;6207913;22;19915;-89
2022/11/12 05:19:06;;;;;;;;;;;;;;;;;;6233364;22;19924;-89
2022/11/12 05:24:17;;;;;;;;;;;;;;;;;;6230371;22;19926;-89
2022/11/12 05:26:43;;;;;;;;;;;;;;;;;;6231430;22;19919;-89
2022/11/12 05:29:08;;;;;;;;;;;;;;;;;;6230266;22;20020;-89
2022/11/12 05:31:34;;;;;;;;;;;;;;;;;;6202732;22;20169;-89
2022/11/12 05:34:00;;;;;;;;;;;;;;;;;;6206198;22;19919;-89
2022/11/12 05:36:26;;;;;;;;;;;;;;;;;;6228296;22;19923;-89
2022/11/12 05:38:52;;;;;;;;;;;;;;;;;;6205497;22;20380;-89
2022/11/12 05:41:18;;;;;;;;;;;;;;;;;;6202575;22;19942;-89
2022/11/12 05:43:44;;;;;;;;;;;;;;;;;;6204391;22;20394;-89
2022/11/12 05:46:10;;;;;;;;;;;;;;;;;;6233893;22;20328;-89
2022/11/12 05:48:36;;;;;;;;;;;;;;;;;;6230274;22;20311;-89
2022/11/12 05:51:02;;;;;;;;;;;;;;;;;;6206515;22;20359;-89
2022/11/12 05:53:28;;;;;;;;;;;;;;;;;;6229038;22;20260;-88
2022/11/12 05:55:54;;;;;;;;;;;;;;;;;;6208113;22;20240;-89
2022/11/12 05:58:20;;;;;;;;;;;;;;;;;;6228175;22;19926;-89
2022/11/12 06:00:46;;;;;;;;;;;;;;;;;;6229059;22;19931;-89
2022/11/12 06:03:12;;;;;;;;;;;;;;;;;;6229631;22;19919;-89
2022/11/12 06:05:38;;;;;;;;;;;;;;;;;;6201873;22;19930;-89
2022/11/12 06:08:04;;;;;;;;;;;;;;;;;;6231026;22;19973;-90
2022/11/12 06:10:30;;;;;;;;;;;;;;;;;;6202352;22;19950;-89
2022/11/12 06:12:56;;;;;;;;;;;;;;;;;;6231965;22;20340;-89
2022/11/12 06:15:25;;;;;;;;;;;;;;;;;;6203804;22;19919;-89
2022/11/12 06:17:51;;;;;;;;;;;;;;;;;;6204475;22;20344;-90
2022/11/12 06:20:17;;;;;;;;;;;;;;;;;;6203426;22;19924;-90
2022/11/12 06:22:43;;;;;;;;;;;;;;;;;;6232960;22;19998;-89
2022/11/12 06:25:09;;;;;;;;;;;;;;;;;;6230547;22;20330;-89
2022/11/12 06:27:35;;;;;;;;;;;;;;;;;;6203277;22;20307;-89
2022/11/12 06:30:01;;;;;;;;;;;;;;;;;;6205300;22;19923;-89
2022/11/12 06:32:27;;;;;;;;;;;;;;;;;;6201704;22;19919;-89
2022/11/12 06:34:53;;;;;;;;;;;;;;;;;;6204619;22;20009;-89
2022/11/12 06:37:20;;;;;;;;;;;;;;;;;;6232308;22;19919;-90
2022/11/12 06:39:46;;;;;;;;;;;;;;;;;;6231298;22;19950;-89
2022/11/12 06:42:12;;;;;;;;;;;;;;;;;;6229427;22;19919;-89
2022/11/12 06:44:38;;;;;;;;;;;;;;;;;;6227833;22;19915;-89
2022/11/12 06:47:04;;;;;;;;;;;;;;;;;;6205790;22;20248;-90
2022/11/12 06:49:30;;;;;;;;;;;;;;;;;;6207169;22;19919;-89
2022/11/12 06:51:56;;;;;;;;;;;;;;;;;;6205040;22;20012;-89
2022/11/12 06:54:22;;;;;;;;;;;;;;;;;;6228594;22;19923;-89
2022/11/12 06:56:48;;;;;;;;;;;;;;;;;;6232612;22;19966;-89
2022/11/12 06:59:14;;;;;;;;;;;;;;;;;;6233198;22;19931;-88
2022/11/12 07:01:40;;;;;;;;;;;;;;;;;;6204205;22;19916;-89
2022/11/12 07:04:06;;;;;;;;;;;;;;;;;;6232898;22;19923;-89
2022/11/12 07:06:32;;;;;;;;;;;;;;;;;;6229836;22;19926;-89
2022/11/12 07:08:58;;;;;;;;;;;;;;;;;;6230719;22;19947;-89
2022/11/12 07:11:23;;;;;;;;;;;;;;;;;;6231701;22;20275;-89
2022/11/12 07:13:49;;;;;;;;;;;;;;;;;;6234841;22;20251;-89
2022/11/12 07:16:17;;;;;;;;;;;;;;;;;;6229990;22;20121;-89
2022/11/12 07:18:43;;;;;;;;;;;;;;;;;;6234483;22;19919;-89
2022/11/12 07:21:09;;;;;;;;;;;;;;;;;;6234095;22;19923;-89
2022/11/12 07:23:35;;;;;;;;;;;;;;;;;;6230980;22;20457;-88
2022/11/12 07:26:01;;;;;;;;;;;;;;;;;;6235391;22;20369;-89
2022/11/12 07:28:27;;;;;;;;;;;;;;;;;;6232951;22;19919;-89
2022/11/12 07:30:53;;;;;;;;;;;;;;;;;;6208308;22;19942;-89
2022/11/12 07:33:19;;;;;;;;;;;;;;;;;;6206998;22;20000;-89
2022/11/12 07:35:45;;;;;;;;;;;;;;;;;;6209622;22;19919;-89
2022/11/12 07:38:11;;;;;;;;;;;;;;;;;;6234349;22;20329;-89
2022/11/12 07:40:36;;;;;;;;;;;;;;;;;;6201477;22;20252;-89
2022/11/12 07:43:02;;;;;;;;;;;;;;;;;;6207077;22;20312;-88
2022/11/12 07:45:28;;;;;;;;;;;;;;;;;;6229150;22;19927;-89
2022/11/12 07:47:54;;;;;;;;;;;;;;;;;;6231302;22;19919;-89
2022/11/12 07:50:20;;;;;;;;;;;;;;;;;;6206151;22;19919;-89
2022/11/12 07:52:46;;;;;;;;;;;;;;;;;;6208897;22;19929;-89
2022/11/12 07:55:12;;;;;;;;;;;;;;;;;;6244854;22;20359;-89
2022/11/12 07:57:38;;;;;;;;;;;;;;;;;;6246509;22;20582;-89
2022/11/12 08:00:04;;;;;;;;;;;;;;;;;;6262480;22;20436;-89
2022/11/12 08:02:30;;;;;;;;;;;;;;;;;;6228223;22;19919;-89
2022/11/12 08:04:56;;;;;;;;;;;;;;;;;;6233949;22;19923;-88
2022/11/12 08:07:23;;;;;;;;;;;;;;;;;;6230512;22;19965;-89
2022/11/12 08:09:49;;;;;;;;;;;;;;;;;;6258292;22;19920;-90
2022/11/12 08:12:15;;;;;;;;;;;;;;;;;;6231930;22;19923;-89
2022/11/12 08:14:41;;;;;;;;;;;;;;;;;;6232776;22;20303;-89
2022/11/12 08:17:07;;;;;;;;;;;;;;;;;;6257197;22;19970;-89
2022/11/12 08:19:33;;;;;;;;;;;;;;;;;;6257801;22;19923;-89
2022/11/12 08:21:59;;;;;;;;;;;;;;;;;;6259832;22;20014;-89
2022/11/12 08:24:25;;;;;;;;;;;;;;;;;;6234591;22;19931;-89
2022/11/12 08:26:51;;;;;;;;;;;;;;;;;;6234732;22;20685;-89
2022/11/12 08:29:17;;;;;;;;;;;;;;;;;;6256020;22;20243;-89
2022/11/12 08:31:43;;;;;;;;;;;;;;;;;;6232285;22;19919;-89
2022/11/12 08:34:12;;;;;;;;;;;;;;;;;;6258280;22;19919;-89
2022/11/12 08:36:39;;;;;;;;;;;;;;;;;;6231338;22;20257;-89
2022/11/12 08:39:05;;;;;;;;;;;;;;;;;;6233495;22;20003;-89
2022/11/12 08:41:31;;;;;;;;;;;;;;;;;;6229717;22;20304;-89
2022/11/12 08:43:57;;;;;;;;;;;;;;;;;;6232406;22;19986;-90
2022/11/12 08:46:23;;;;;;;;;;;;;;;;;;6231319;22;19955;-89
2022/11/12 08:48:49;;;;;;;;;;;;;;;;;;6260755;22;19923;-89
2022/11/12 08:51:15;;;;;;;;;;;;;;;;;;6230997;22;19922;-89
2022/11/12 08:53:41;;;;;;;;;;;;;;;;;;6232635;22;20299;-89
2022/11/12 08:56:08;;;;;;;;;;;;;;;;;;6230958;22;20396;-89
2022/11/12 08:58:35;;;;;;;;;;;;;;;;;;6230619;22;20377;-89
2022/11/12 09:01:01;;;;;;;;;;;;;;;;;;6236151;22;20248;-90
2022/11/12 09:03:27;;;;;;;;;;;;;;;;;;6254754;22;19986;-89
2022/11/12 09:05:53;;;;;;;;;;;;;;;;;;6233454;22;19919;-90
2022/11/12 09:08:19;;;;;;;;;;;;;;;;;;6228741;22;19919;-89
2022/11/12 09:10:45;;;;;;;;;;;;;;;;;;6232188;22;20325;-89
2022/11/12 09:13:12;;;;;;;;;;;;;;;;;;6231374;22;19930;-89
2022/11/12 09:15:39;;;;;;;;;;;;;;;;;;6189758;23;20089;-90
2022/11/12 09:18:05;;;;;;;;;;;;;;;;;;6191677;23;20023;-89
2022/11/12 09:20:31;;;;;;;;;;;;;;;;;;6193218;23;19931;-89
2022/11/12 09:22:57;;;;;;;;;;;;;;;;;;6195580;23;19916;-90
2022/11/12 09:25:23;;;;;;;;;;;;;;;;;;6165179;23;19931;-89
2022/11/12 09:27:49;;;;;;;;;;;;;;;;;;6195166;23;20255;-90
2022/11/12 09:30:15;;;;;;;;;;;;;;;;;;6192084;23;20062;-89
2022/11/12 09:32:41;;;;;;;;;;;;;;;;;;6196255;23;20454;-90
2022/11/12 09:35:07;;;;;;;;;;;;;;;;;;6196133;23;19930;-90
2022/11/12 09:37:33;;;;;;;;;;;;;;;;;;6193868;23;20875;-90
2022/11/12 09:39:59;;;;;;;;;;;;;;;;;;6193180;23;20234;-90
2022/11/12 09:42:25;;;;;;;;;;;;;;;;;;6193645;23;19926;-91
2022/11/12 09:44:51;;;;;;;;;;;;;;;;;;6195461;23;20418;-88
2022/11/12 09:47:17;;;;;;;;;;;;;;;;;;6194294;23;19974;-88
2022/11/12 09:49:43;;;;;;;;;;;;;;;;;;6193267;23;19916;-88
2022/11/12 09:52:09;;;;;;;;;;;;;;;;;;6201231;22;20288;-88
2022/11/12 09:54:37;;;;;;;;;;;;;;;;;;6231840;22;20280;-89
2022/11/12 09:57:03;;;;;;;;;;;;;;;;;;6237360;22;19919;-89
2022/11/12 09:59:29;;;;;;;;;;;;;;;;;;6235260;22;19923;-89
2022/11/12 10:01:55;;;;;;;;;;;;;;;;;;6258204;22;19919;-88
2022/11/12 10:04:21;;;;;;;;;;;;;;;;;;6235594;22;19919;-90
2022/11/12 10:06:47;;;;;;;;;;;;;;;;;;6265039;22;19980;-89
2022/11/12 10:09:13;;;;;;;;;;;;;;;;;;6260923;22;19919;-90
2022/11/12 10:14:24;;;;;;;;;;;;;;;;;;6259998;22;19926;-89
2022/11/12 10:17:03;;;;;;;;;;;;;;;;;;;;;
2022/11/12 10:22:35;;;;;;;;;;;;;;;;;;6217436;22;20759;-90
2022/11/12 10:25:14;;;;;;;;;;;;;;;;;;;;;
2022/11/12 10:27:48;;;;;;;;;;;;;;;;;;6237558;22;19925;-90
2022/11/12 10:30:24;;;;;;;;;;;;;;;;;;;;;
2022/11/12 10:32:53;;;;;;;;;;;;;;;;;;6235534;22;19937;-89
2022/11/12 10:35:22;;;;;;;;;;;;;;;;;;6236405;22;19918;-89
2022/11/12 10:37:48;;;;;;;;;;;;;;;;;;6238221;22;19922;-89
2022/11/12 10:40:14;;;;;;;;;;;;;;;;;;6237617;22;19934;-87
2022/11/12 10:42:43;;;;;;;;;;;;;;;;;;6237855;22;19926;-89
2022/11/12 10:45:10;;;;;;;;;;;;;;;;;;6236535;22;19922;-89
2022/11/12 10:47:40;;;;;;;;;;;;;;;;;;6258936;22;20263;-89
2022/11/12 10:50:09;;;;;;;;;;;;;;;;;;6236939;22;19923;-89
2022/11/12 10:52:35;;;;;;;;;;;;;;;;;;6236965;22;19942;-89
2022/11/12 10:55:01;;;;;;;;;;;;;;;;;;6236829;22;20387;-89
2022/11/12 10:57:27;;;;;;;;;;;;;;;;;;6235416;22;20302;-89
2022/11/12 10:59:53;;;;;;;;;;;;;;;;;;6233786;22;19923;-89
2022/11/12 11:02:19;;;;;;;;;;;;;;;;;;6260149;22;19942;-88
2022/11/12 11:04:45;;;;;;;;;;;;;;;;;;6237454;22;19923;-89
2022/11/12 11:07:11;;;;;;;;;;;;;;;;;;6239888;22;19958;-89
2022/11/12 11:09:40;;;;;;;;;;;;;;;;;;6245183;22;19919;-89
2022/11/12 11:12:06;;;;;;;;;;;;;;;;;;6240080;22;19965;-89
2022/11/12 11:14:32;;;;;;;;;;;;;;;;;;6238312;22;19927;-89
2022/11/12 11:16:58;;;;;;;;;;;;;;;;;;6262431;22;19999;-88
2022/11/12 11:19:26;;;;;;;;;;;;;;;;;;6236177;22;19924;-89
2022/11/12 11:21:55;;;;;;;;;;;;;;;;;;6237040;22;19956;-89
2022/11/12 11:24:23;;;;;;;;;;;;;;;;;;6232520;22;19920;-89
2022/11/12 11:26:49;;;;;;;;;;;;;;;;;;6236160;22;19986;-90
2022/11/12 11:29:18;;;;;;;;;;;;;;;;;;6232683;22;20341;-90
2022/11/12 11:31:44;;;;;;;;;;;;;;;;;;6237470;22;19926;-89
2022/11/12 11:34:10;;;;;;;;;;;;;;;;;;6263882;22;19919;-90
2022/11/12 11:36:36;;;;;;;;;;;;;;;;;;6235180;22;19923;-90
2022/11/12 11:39:05;;;;;;;;;;;;;;;;;;6237876;22;20260;-89
2022/11/12 11:41:31;;;;;;;;;;;;;;;;;;6234926;22;19923;-89
2022/11/12 11:43:57;;;;;;;;;;;;;;;;;;6237924;22;19923;-90
2022/11/12 11:46:23;;;;;;;;;;;;;;;;;;6234773;22;19919;-89
2022/11/12 11:48:49;;;;;;;;;;;;;;;;;;6238004;22;19919;-89
2022/11/12 11:51:15;;;;;;;;;;;;;;;;;;6234811;22;19915;-90
2022/11/12 11:53:41;;;;;;;;;;;;;;;;;;6235086;22;19923;-90
2022/11/12 11:56:07;;;;;;;;;;;;;;;;;;6235547;22;19990;-89
2022/11/12 11:58:33;;;;;;;;;;;;;;;;;;6209696;22;19954;-89
2022/11/12 12:00:59;;;;;;;;;;;;;;;;;;6211083;22;19934;-89
2022/11/12 12:03:29;;;;;;;;;;;;;;;;;;6232132;22;20240;-90
2022/11/12 12:05:57;;;;;;;;;;;;;;;;;;6211604;22;19919;-89
2022/11/12 12:08:23;;;;;;;;;;;;;;;;;;6209376;22;19916;-90
2022/11/12 12:10:50;;;;;;;;;;;;;;;;;;6212216;22;19915;-89
2022/11/12 12:13:16;;;;;;;;;;;;;;;;;;6209835;22;19924;-89
2022/11/12 12:15:45;;;;;;;;;;;;;;;;;;6237924;22;20248;-90
2022/11/12 12:18:11;;;;;;;;;;;;;;;;;;6211640;22;19927;-90
2022/11/12 12:20:37;;;;;;;;;;;;;;;;;;6234703;22;20431;-90
2022/11/12 12:23:06;;;;;;;;;;;;;;;;;;6237040;22;19943;-89
2022/11/12 12:25:32;;;;;;;;;;;;;;;;;;6209217;22;19926;-90
2022/11/12 12:27:58;;;;;;;;;;;;;;;;;;6236121;22;19919;-89
2022/11/12 12:30:24;;;;;;;;;;;;;;;;;;6234307;22;19986;-90
2022/11/12 12:32:50;;;;;;;;;;;;;;;;;;6240675;22;19921;-89
2022/11/12 12:35:16;;;;;;;;;;;;;;;;;;6212538;22;19926;-88
2022/11/12 12:37:42;;;;;;;;;;;;;;;;;;6210904;22;20435;-89
2022/11/12 12:40:08;;;;;;;;;;;;;;;;;;6233960;22;20001;-89
2022/11/12 12:42:34;;;;;;;;;;;;;;;;;;6229431;22;20157;-89
2022/11/12 12:45:00;;;;;;;;;;;;;;;;;;6210478;22;19919;-89
2022/11/12 12:47:26;;;;;;;;;;;;;;;;;;6206446;22;19923;-89
2022/11/12 12:49:52;;;;;;;;;;;;;;;;;;6234114;22;19946;-89
2022/11/12 12:52:18;;;;;;;;;;;;;;;;;;6201246;22;20022;-90
2022/11/12 12:54:44;;;;;;;;;;;;;;;;;;6204543;23;19923;-90
2022/11/12 12:57:10;;;;;;;;;;;;;;;;;;6210723;23;19942;-90
2022/11/12 12:59:36;;;;;;;;;;;;;;;;;;6180190;23;20010;-90
2022/11/12 13:02:02;;;;;;;;;;;;;;;;;;6180245;23;19920;-90
2022/11/12 13:04:28;;;;;;;;;;;;;;;;;;6204199;23;19919;-90
2022/11/12 13:06:54;;;;;;;;;;;;;;;;;;6209320;23;19915;-90
2022/11/12 13:09:20;;;;;;;;;;;;;;;;;;6178277;23;19920;-90
2022/11/12 13:14:51;;;;;;;;;;;;;;;;;;6199024;23;20555;-90
2022/11/12 13:17:17;;;;;;;;;;;;;;;;;;6176744;23;19920;-90
2022/11/12 13:25:41;;;;;;;;;;;;;;;;;;6218265;23;19915;-92
2022/11/12 13:28:17;;;;;;;;;;;;;;;;;;;;;
2022/11/12 13:46:24;;;;;;;;;;;;;;;;;;;;;
2022/11/12 13:55:01;;;;;;;;;;;;;;;;;;5906437;24;20018;-93
2022/11/12 14:00:40;;;;;;;;;;;;;;;;;;6046718;23;19917;-93
2022/11/12 14:03:37;;;;;;;;;;;;;;;;;;;;;
2022/11/12 14:08:51;;;;;;;;;;;;;;;;;;6092139;23;19948;-92
2022/11/12 14:20:25;;;;;;;;;;;;;;;;;;6065811;23;19945;-93
2022/11/12 14:22:53;;;;;;;;;;;;;;;;;;6064534;23;20225;-93
2022/11/12 14:25:35;;;;;;;;;;;;;;;;;;;;;
2022/11/12 14:28:01;;;;;;;;;;;;;;;;;;6109980;23;19924;-92
2022/11/12 14:30:30;;;;;;;;;;;;;;;;;;6169765;23;19908;-91
2022/11/12 14:32:59;;;;;;;;;;;;;;;;;;6173655;23;19904;-92
2022/11/12 14:35:32;;;;;;;;;;;;;;;;;;6171309;23;19924;-91
2022/11/12 14:38:23;;;;;;;;;;;;;;;;;;;;;
2022/11/12 14:40:58;;;;;;;;;;;;;;;;;;6123798;23;19924;-93
2022/11/12 14:43:44;;;;;;;;;;;;;;;;;;6230751;23;19920;-93
2022/11/12 14:46:23;;;;;;;;;;;;;;;;;;;;;
2022/11/12 14:49:16;;;;;;;;;;;;;;;;;;;;;
2022/11/12 14:52:01;;;;;;;;;;;;;;;;;;6244894;23;19915;-94
2022/11/12 14:54:39;;;;;;;;;;;;;;;;;;6193687;22;19927;-93
2022/11/12 14:57:08;;;;;;;;;;;;;;;;;;6213352;22;20057;-93
2022/11/12 14:59:44;;;;;;;;;;;;;;;;;;6211677;22;19923;-94
2022/11/12 15:02:19;;;;;;;;;;;;;;;;;;6210902;22;19924;-93
2022/11/12 15:04:54;;;;;;;;;;;;;;;;;;6206387;22;19923;-92
2022/11/12 15:07:23;;;;;;;;;;;;;;;;;;6204375;22;19923;-93
2022/11/12 15:10:01;;;;;;;;;;;;;;;;;;6212792;22;19938;-92
2022/11/12 15:12:33;;;;;;;;;;;;;;;;;;6210162;22;19965;-94
2022/11/12 15:15:02;;;;;;;;;;;;;;;;;;6211891;22;19923;-94
2022/11/12 15:18:04;;;;;;;;;;;;;;;;;;6222973;22;19915;-94
2022/11/12 15:20:32;;;;;;;;;;;;;;;;;;6231498;22;19981;-94
2022/11/12 15:23:01;;;;;;;;;;;;;;;;;;6209091;22;19919;-94
2022/11/12 15:31:33;;;;;;;;;;;;;;;;;;6222586;22;19986;-95
2022/11/12 15:34:14;;;;;;;;;;;;;;;;;;6213984;22;19973;-96
2022/11/12 15:37:06;;;;;;;;;;;;;;;;;;;;;
2022/11/12 18:41:42;;;;;;;;;;;;;;;;;;;;;
2022/11/12 18:50:02;;;;;;;;;;;;;;;;;;6265144;22;19927;-85
2022/11/12 18:52:41;;;;;;;;;;;;;;;;;;;;;
2022/11/12 20:20:23;;;;;;;;;;;;;;;;;;6276007;22;19927;-89
2022/11/12 20:22:52;;;;;;;;;;;;;;;;;;6235869;22;19950;-89
2022/11/12 20:25:18;;;;;;;;;;;;;;;;;;6231355;22;19925;-89
2022/11/12 20:27:44;;;;;;;;;;;;;;;;;;6237089;22;20391;-89
2022/11/12 20:30:10;;;;;;;;;;;;;;;;;;6235827;22;19964;-89
2022/11/12 20:32:36;;;;;;;;;;;;;;;;;;6233545;22;20970;-88
2022/11/12 20:35:02;;;;;;;;;;;;;;;;;;6237041;22;19982;-89
2022/11/12 20:37:28;;;;;;;;;;;;;;;;;;6262836;22;20162;-88
2022/11/12 20:39:57;;;;;;;;;;;;;;;;;;6239694;22;19922;-88
2022/11/12 20:42:23;;;;;;;;;;;;;;;;;;6230863;22;19923;-88
2022/11/12 20:44:49;;;;;;;;;;;;;;;;;;6236136;22;19989;-89
2022/11/12 20:47:18;;;;;;;;;;;;;;;;;;6237349;22;19919;-89
2022/11/12 20:49:47;;;;;;;;;;;;;;;;;;6264959;22;19926;-89
2022/11/12 20:52:13;;;;;;;;;;;;;;;;;;6264245;22;19919;-88
2022/11/12 20:54:39;;;;;;;;;;;;;;;;;;6235627;22;19926;-89
2022/11/12 20:57:05;;;;;;;;;;;;;;;;;;6237756;22;19940;-90
2022/11/12 20:59:31;;;;;;;;;;;;;;;;;;6236254;22;19923;-89
2022/11/12 21:01:57;;;;;;;;;;;;;;;;;;6237554;22;19919;-89
2022/11/12 21:04:23;;;;;;;;;;;;;;;;;;6235551;22;20827;-89
2022/11/12 21:06:54;;;;;;;;;;;;;;;;;;6237867;22;19954;-89
2022/11/12 21:09:20;;;;;;;;;;;;;;;;;;6233433;22;20473;-89
2022/11/12 21:11:46;;;;;;;;;;;;;;;;;;6234701;22;19922;-89
2022/11/12 21:14:19;;;;;;;;;;;;;;;;;;6235923;22;19967;-89
2022/11/12 21:16:45;;;;;;;;;;;;;;;;;;6263484;22;19919;-89
2022/11/12 21:19:11;;;;;;;;;;;;;;;;;;6239588;22;19922;-89
2022/11/12 21:21:37;;;;;;;;;;;;;;;;;;6227892;22;19924;-88
2022/11/12 21:24:03;;;;;;;;;;;;;;;;;;6234885;22;19923;-89
2022/11/12 21:26:29;;;;;;;;;;;;;;;;;;6226571;22;19926;-88
2022/11/12 21:28:55;;;;;;;;;;;;;;;;;;6233626;22;19923;-88
2022/11/12 21:31:22;;;;;;;;;;;;;;;;;;6228893;22;19923;-88
2022/11/12 21:33:48;;;;;;;;;;;;;;;;;;6234509;22;19990;-88
2022/11/12 21:36:17;;;;;;;;;;;;;;;;;;6257587;22;19923;-89
2022/11/12 21:38:43;;;;;;;;;;;;;;;;;;6230818;22;19923;-89
2022/11/12 21:41:09;;;;;;;;;;;;;;;;;;6234270;22;19923;-89
2022/11/12 21:43:37;;;;;;;;;;;;;;;;;;6259516;22;20489;-89
2022/11/12 21:46:04;;;;;;;;;;;;;;;;;;6256268;22;20302;-88
2022/11/12 21:48:32;;;;;;;;;;;;;;;;;;6232497;22;19930;-88
2022/11/12 21:50:58;;;;;;;;;;;;;;;;;;6233809;22;19919;-88
2022/11/12 21:53:24;;;;;;;;;;;;;;;;;;6232021;22;19972;-89
2022/11/12 21:55:50;;;;;;;;;;;;;;;;;;6234967;22;19923;-89
2022/11/12 21:58:16;;;;;;;;;;;;;;;;;;6232668;22;19915;-88
2022/11/12 22:00:46;;;;;;;;;;;;;;;;;;6259022;22;19919;-88
2022/11/12 22:03:12;;;;;;;;;;;;;;;;;;6235710;22;20360;-89
2022/11/12 22:05:38;;;;;;;;;;;;;;;;;;6226569;22;19947;-88
2022/11/12 22:08:04;;;;;;;;;;;;;;;;;;6261367;22;19927;-88
2022/11/12 22:10:30;;;;;;;;;;;;;;;;;;6231887;22;19939;-89
2022/11/12 22:12:56;;;;;;;;;;;;;;;;;;6258969;22;19951;-88
2022/11/12 22:15:22;;;;;;;;;;;;;;;;;;6257943;22;19977;-89
2022/11/12 22:17:48;;;;;;;;;;;;;;;;;;6232933;22;19919;-89
2022/11/12 22:20:17;;;;;;;;;;;;;;;;;;6257672;22;20074;-88
2022/11/12 22:22:43;;;;;;;;;;;;;;;;;;6261151;22;19984;-89
2022/11/12 22:25:09;;;;;;;;;;;;;;;;;;6233695;22;19919;-89
2022/11/12 22:27:35;;;;;;;;;;;;;;;;;;6231654;22;20327;-89
2022/11/12 22:30:01;;;;;;;;;;;;;;;;;;6234459;22;19923;-88
2022/11/12 22:32:27;;;;;;;;;;;;;;;;;;6230461;22;19922;-89
2022/11/12 22:34:53;;;;;;;;;;;;;;;;;;6231207;22;19976;-89
2022/11/12 22:37:20;;;;;;;;;;;;;;;;;;6230156;22;19989;-89
2022/11/12 22:39:46;;;;;;;;;;;;;;;;;;6235732;22;19919;-89
2022/11/12 22:42:14;;;;;;;;;;;;;;;;;;6234330;22;19941;-89